createdAt,value
2023-03-04T00:02:02.245Z,86.91
2023-03-04T00:04:33.568Z,87.07
2023-03-04T00:07:04.838Z,86.53
2023-03-04T00:09:36.619Z,86.48
2023-03-04T00:12:08.540Z,86.06
2023-03-04T00:14:40.619Z,87.10
2023-03-04T00:17:11.905Z,86.24
2023-03-04T00:19:43.209Z,86.67
2023-03-04T00:22:14.466Z,86.61
2023-03-04T00:24:45.799Z,86.93
2023-03-04T00:27:17.123Z,86.59
2023-03-04T00:29:48.443Z,87.16
2023-03-04T00:32:19.741Z,86.97
2023-03-04T00:34:51.128Z,87.63
2023-03-04T00:37:22.411Z,86.59
2023-03-04T00:39:53.656Z,86.58
2023-03-04T00:42:24.906Z,86.47
2023-03-04T00:44:56.160Z,86.33
2023-03-04T00:47:27.472Z,86.61
2023-03-04T00:49:58.741Z,86.61
2023-03-04T00:52:30.027Z,87.40
2023-03-04T00:55:01.378Z,86.98
2023-03-04T00:57:32.723Z,87.07
2023-03-04T01:00:05.580Z,86.58
2023-03-04T01:02:36.900Z,86.94
2023-03-04T01:05:09.318Z,87.06
2023-03-04T01:07:40.603Z,87.47
2023-03-04T01:10:14.422Z,87.34
2023-03-04T01:12:45.809Z,87.60
2023-03-04T01:15:17.088Z,87.04
2023-03-04T01:17:48.594Z,87.19
2023-03-04T01:20:20.332Z,87.68
2023-03-04T01:22:51.608Z,87.41
2023-03-04T01:25:22.914Z,87.64
2023-03-04T01:27:54.240Z,87.45
2023-03-04T01:30:25.497Z,86.87
2023-03-04T01:32:56.766Z,87.71
2023-03-04T01:35:28.205Z,87.42
2023-03-04T01:37:59.485Z,87.93
2023-03-04T01:40:31.514Z,87.35
2023-03-04T01:43:02.785Z,87.73
2023-03-04T01:45:35.428Z,88.29
2023-03-04T01:48:09.745Z,87.75
2023-03-04T01:50:41.105Z,87.98
2023-03-04T01:53:31.829Z,88.26
2023-03-04T01:56:35.197Z,88.30
2023-03-04T01:59:23.212Z,88.08
2023-03-04T02:02:00.061Z,87.90
2023-03-04T02:04:34.319Z,88.42
2023-03-04T02:07:06.002Z,88.55
2023-03-04T02:09:37.434Z,88.23
2023-03-04T02:12:08.732Z,88.17
2023-03-04T02:14:40.257Z,89.06
2023-03-04T02:17:12.737Z,88.72
2023-03-04T02:19:53.399Z,88.55
2023-03-04T02:22:25.767Z,88.06
2023-03-04T02:25:03.401Z,88.51
2023-03-04T02:27:34.660Z,88.63
2023-03-04T02:30:06.673Z,88.43
2023-03-04T02:32:38.062Z,88.53
2023-03-04T02:35:17.127Z,88.31
2023-03-04T02:37:48.952Z,88.44
2023-03-04T02:40:42.304Z,88.38
2023-03-04T02:43:13.854Z,88.54
2023-03-04T02:45:47.889Z,88.76
2023-03-04T02:48:21.848Z,88.30
2023-03-04T02:50:54.444Z,88.46
2023-03-04T02:53:25.762Z,88.38
2023-03-04T02:55:57.283Z,88.85
2023-03-04T02:58:28.743Z,88.41
2023-03-04T03:01:00.134Z,88.22
2023-03-04T03:03:31.419Z,88.29
2023-03-04T03:06:02.948Z,88.30
2023-03-04T03:08:34.248Z,88.39
2023-03-04T03:11:05.534Z,88.58
2023-03-04T03:13:36.933Z,88.35
2023-03-04T03:16:08.205Z,88.59
2023-03-04T03:18:40.418Z,88.52
2023-03-04T03:21:11.776Z,88.83
2023-03-04T03:23:43.336Z,88.43
2023-03-04T03:26:14.640Z,87.98
2023-03-04T03:28:45.949Z,88.40
2023-03-04T03:31:17.266Z,88.28
2023-03-04T03:33:48.543Z,88.28
2023-03-04T03:36:19.913Z,88.13
2023-03-04T03:38:51.207Z,88.30
2023-03-04T03:41:22.471Z,88.78
2023-03-04T03:43:53.759Z,88.90
2023-03-04T03:46:25.109Z,88.76
2023-03-04T03:48:56.412Z,89.13
2023-03-04T03:51:27.673Z,89.56
2023-03-04T03:53:58.948Z,89.75
2023-03-04T03:56:30.317Z,89.80
2023-03-04T03:59:01.603Z,89.90
2023-03-04T04:01:33.580Z,89.91
2023-03-04T04:04:05.183Z,89.90
2023-03-04T04:06:36.550Z,90.15
2023-03-04T04:09:07.849Z,89.80
2023-03-04T04:11:39.108Z,89.95
2023-03-04T04:14:13.889Z,90.92
2023-03-04T04:16:45.193Z,90.38
2023-03-04T04:19:18.998Z,90.72
2023-03-04T04:21:50.435Z,91.47
2023-03-04T04:24:21.744Z,91.28
2023-03-04T04:26:53.090Z,91.72
2023-03-04T04:29:24.359Z,91.89
2023-03-04T04:31:55.709Z,91.48
2023-03-04T04:34:27.045Z,91.61
2023-03-04T04:36:58.330Z,92.17
2023-03-04T04:39:29.696Z,91.78
2023-03-04T04:42:01.015Z,91.60
2023-03-04T04:44:32.281Z,91.93
2023-03-04T04:47:03.579Z,92.16
2023-03-04T04:49:34.886Z,92.93
2023-03-04T04:52:06.185Z,92.88
2023-03-04T04:54:37.455Z,92.36
2023-03-04T04:57:08.720Z,92.84
2023-03-04T04:59:40.028Z,92.87
2023-03-04T05:02:11.296Z,93.24
2023-03-04T05:04:42.602Z,93.38
2023-03-04T05:07:13.867Z,93.00
2023-03-04T05:09:45.974Z,92.83
2023-03-04T05:12:17.289Z,93.45
2023-03-04T05:14:48.566Z,93.05
2023-03-04T05:17:19.920Z,93.03
2023-03-04T05:19:51.168Z,92.85
2023-03-04T05:22:22.446Z,93.59
2023-03-04T05:24:53.761Z,93.70
2023-03-04T05:27:25.122Z,94.68
2023-03-04T05:29:59.702Z,94.66
2023-03-04T05:32:30.976Z,95.09
2023-03-04T05:35:02.330Z,94.51
2023-03-04T05:37:33.596Z,94.49
2023-03-04T05:40:05.842Z,94.14
2023-03-04T05:42:37.124Z,93.51
2023-03-04T05:45:08.808Z,94.55
2023-03-04T05:47:40.085Z,94.17
2023-03-04T05:50:11.963Z,93.75
2023-03-04T05:52:43.465Z,94.70
2023-03-04T05:55:15.050Z,94.36
2023-03-04T05:57:46.646Z,94.38
2023-03-04T06:00:18.277Z,93.92
2023-03-04T06:02:49.644Z,94.25
2023-03-04T06:05:21.371Z,94.38
2023-03-04T06:07:52.653Z,93.92
2023-03-04T06:10:24.046Z,94.04
2023-03-04T06:12:55.289Z,93.19
2023-03-04T06:15:26.565Z,92.98
2023-03-04T06:17:57.829Z,92.94
2023-03-04T06:20:29.179Z,91.58
2023-03-04T06:23:00.547Z,92.22
2023-03-04T06:25:32.282Z,92.16
2023-03-04T06:28:03.619Z,91.58
2023-03-04T06:30:34.929Z,92.04
2023-03-04T06:33:06.211Z,90.95
2023-03-04T06:35:37.507Z,86.67
2023-03-04T06:38:08.844Z,88.81
2023-03-04T06:40:40.180Z,88.70
2023-03-04T06:43:11.448Z,88.96
2023-03-04T06:45:42.749Z,86.59
2023-03-04T06:48:14.120Z,87.55
2023-03-04T06:50:45.437Z,88.00
2023-03-04T06:53:16.743Z,87.78
2023-03-04T06:55:48.337Z,87.84
2023-03-04T06:58:19.742Z,86.90
2023-03-04T07:00:51.126Z,86.90
2023-03-04T07:03:22.443Z,87.14
2023-03-04T07:05:53.703Z,87.43
2023-03-04T07:08:24.984Z,87.02
2023-03-04T07:10:56.257Z,87.17
2023-03-04T07:13:27.581Z,86.70
2023-03-04T07:16:00.446Z,87.19
2023-03-04T07:18:31.792Z,87.27
2023-03-04T07:21:04.381Z,86.73
2023-03-04T07:23:36.178Z,86.12
2023-03-04T07:26:07.674Z,85.64
2023-03-04T07:28:39.092Z,86.31
2023-03-04T07:31:21.072Z,85.88
2023-03-04T07:33:52.548Z,86.05
2023-03-04T07:36:24.029Z,86.29
2023-03-04T07:38:55.557Z,86.88
2023-03-04T07:41:27.953Z,85.96
2023-03-04T07:43:59.302Z,86.02
2023-03-04T07:46:30.839Z,86.31
2023-03-04T07:49:02.093Z,85.40
2023-03-04T07:51:34.860Z,86.22
2023-03-04T07:54:06.188Z,84.87
2023-03-04T07:56:37.745Z,84.50
2023-03-04T07:59:09.088Z,84.79
2023-03-04T08:01:40.368Z,83.86
2023-03-04T08:04:11.646Z,84.40
2023-03-04T08:06:43.094Z,85.41
2023-03-04T08:09:14.609Z,84.42
2023-03-04T08:11:46.126Z,84.98
2023-03-04T08:14:17.581Z,84.52
2023-03-04T08:16:48.967Z,83.98
2023-03-04T08:19:20.386Z,83.44
2023-03-04T08:21:51.793Z,84.10
2023-03-04T08:24:23.071Z,83.93
2023-03-04T08:26:54.388Z,84.49
2023-03-04T08:29:26.080Z,83.80
2023-03-04T08:31:58.427Z,84.29
2023-03-04T08:34:30.209Z,83.79
2023-03-04T08:37:02.003Z,84.34
2023-03-04T08:39:35.513Z,85.20
2023-03-04T08:42:06.890Z,85.47
2023-03-04T08:44:38.169Z,84.92
2023-03-04T08:47:10.249Z,85.34
2023-03-04T08:49:41.622Z,85.39
2023-03-04T08:52:12.913Z,85.73
2023-03-04T08:54:44.360Z,85.67
2023-03-04T08:57:15.741Z,85.62
2023-03-04T08:59:47.032Z,86.13
2023-03-04T09:02:18.299Z,86.24
2023-03-04T09:04:49.580Z,86.47
2023-03-04T09:07:20.864Z,86.80
2023-03-04T09:09:52.181Z,86.13
2023-03-04T09:12:23.658Z,86.20
2023-03-04T09:15:09.911Z,84.68
2023-03-04T09:17:41.852Z,84.40
2023-03-04T09:20:13.468Z,84.56
2023-03-04T09:22:44.825Z,83.73
2023-03-04T09:25:16.230Z,84.75
2023-03-04T09:27:47.650Z,84.39
2023-03-04T09:30:19.322Z,83.56
2023-03-04T09:32:50.813Z,82.86
2023-03-04T09:35:22.194Z,83.02
2023-03-04T09:37:54.177Z,83.22
2023-03-04T09:40:37.236Z,82.42
2023-03-04T09:43:18.304Z,82.64
2023-03-04T09:45:56.975Z,82.25
2023-03-04T09:48:34.583Z,81.34
2023-03-04T09:51:43.537Z,80.16
2023-03-04T09:54:52.962Z,81.51
2023-03-04T09:57:42.501Z,81.51
2023-03-04T10:00:21.642Z,80.24
2023-03-04T10:03:15.030Z,81.35
2023-03-04T10:06:06.302Z,81.29
2023-03-04T10:09:04.460Z,81.36
2023-03-04T10:11:45.583Z,80.81
2023-03-04T10:14:22.799Z,80.23
2023-03-04T10:17:11.537Z,78.08
2023-03-04T10:20:05.654Z,79.53
2023-03-04T10:22:43.869Z,79.03
2023-03-04T10:25:22.266Z,79.35
2023-03-04T10:27:59.577Z,79.33
2023-03-04T10:30:53.244Z,80.38
2023-03-04T10:33:30.955Z,78.69
2023-03-04T10:36:09.549Z,79.76
2023-03-04T10:38:42.615Z,79.93
2023-03-04T10:41:17.143Z,80.03
2023-03-04T10:44:10.371Z,79.44
2023-03-04T10:46:47.006Z,79.66
2023-03-04T10:49:20.012Z,78.69
2023-03-04T10:52:02.835Z,78.72
2023-03-04T10:54:47.221Z,77.87
2023-03-04T10:57:38.381Z,77.94
2023-03-04T11:00:18.475Z,78.97
2023-03-04T11:02:50.168Z,79.13
2023-03-04T11:05:25.324Z,77.64
2023-03-04T11:07:59.843Z,78.07
2023-03-04T11:10:37.454Z,77.48
2023-03-04T11:13:11.495Z,76.57
2023-03-04T11:16:24.709Z,75.07
2023-03-04T11:19:03.812Z,75.27
2023-03-04T11:21:40.317Z,75.57
2023-03-04T11:24:28.377Z,73.60
2023-03-04T11:27:15.530Z,74.25
2023-03-04T11:30:15.514Z,73.67
2023-03-04T11:32:51.568Z,74.88
2023-03-04T11:35:32.176Z,74.14
2023-03-04T11:38:20.493Z,72.59
2023-03-04T11:40:57.490Z,72.80
2023-03-04T11:43:36.422Z,72.19
2023-03-04T11:46:32.040Z,72.10
2023-03-04T11:49:07.041Z,71.59
2023-03-04T11:51:53.939Z,71.78
2023-03-04T11:54:43.305Z,70.33
2023-03-04T11:57:40.303Z,72.77
2023-03-04T12:00:29.640Z,73.45
2023-03-04T12:03:28.882Z,73.62
2023-03-04T12:06:18.458Z,73.09
2023-03-04T12:09:03.090Z,73.22
2023-03-04T12:11:58.185Z,74.29
2023-03-04T12:15:06.845Z,70.65
2023-03-04T12:18:05.184Z,70.80
2023-03-04T12:20:51.504Z,70.66
2023-03-04T12:23:41.235Z,71.94
2023-03-04T12:26:21.414Z,72.28
2023-03-04T12:29:22.416Z,72.43
2023-03-04T12:32:06.664Z,72.36
2023-03-04T12:34:56.457Z,73.02
2023-03-04T12:37:36.667Z,70.67
2023-03-04T12:40:28.690Z,69.75
2023-03-04T12:43:26.823Z,70.00
2023-03-04T12:45:58.153Z,69.59
2023-03-04T12:48:35.300Z,70.27
2023-03-04T12:51:22.971Z,69.95
2023-03-04T12:54:12.209Z,71.43
2023-03-04T12:56:48.963Z,72.00
2023-03-04T12:59:23.683Z,70.86
2023-03-04T13:02:16.117Z,71.76
2023-03-04T13:05:02.832Z,72.10
2023-03-04T13:07:52.614Z,71.64
2023-03-04T13:10:24.124Z,72.34
2023-03-04T13:12:58.196Z,72.25
2023-03-04T13:15:34.000Z,72.74
2023-03-04T13:18:24.359Z,68.66
2023-03-04T13:21:14.101Z,71.21
2023-03-04T13:23:45.386Z,70.24
2023-03-04T13:26:29.650Z,70.24
2023-03-04T13:29:13.212Z,68.56
2023-03-04T13:31:59.982Z,68.80
2023-03-04T13:35:06.770Z,67.36
2023-03-04T13:37:38.196Z,69.40
2023-03-04T13:40:23.183Z,68.84
2023-03-04T13:42:54.529Z,69.36
2023-03-04T13:45:36.956Z,69.96
2023-03-04T13:48:24.778Z,65.42
2023-03-04T13:50:56.489Z,68.38
2023-03-04T13:53:33.378Z,68.67
2023-03-04T13:56:09.074Z,68.06
2023-03-04T13:58:41.440Z,68.06
2023-03-04T14:01:22.362Z,69.48
2023-03-04T14:03:54.148Z,67.43
2023-03-04T14:06:30.483Z,69.60
2023-03-04T14:09:12.267Z,66.62
2023-03-04T14:11:44.288Z,69.16
2023-03-04T14:14:20.228Z,68.77
2023-03-04T14:17:01.274Z,69.60
2023-03-04T14:19:38.447Z,68.62
2023-03-04T14:22:40.968Z,69.04
2023-03-04T14:25:15.212Z,69.09
2023-03-04T14:27:47.481Z,68.52
2023-03-04T14:30:39.497Z,69.22
2023-03-04T14:33:21.477Z,69.69
2023-03-04T14:35:59.072Z,69.70
2023-03-04T14:38:38.160Z,69.08
2023-03-04T14:41:18.497Z,68.30
2023-03-04T14:44:01.149Z,69.39
2023-03-04T14:46:40.127Z,69.67
2023-03-04T14:49:14.028Z,68.68
2023-03-04T14:51:53.964Z,68.71
2023-03-04T14:54:32.926Z,68.29
2023-03-04T14:57:21.085Z,69.84
2023-03-04T14:59:53.909Z,68.93
2023-03-04T15:02:41.109Z,67.57
2023-03-04T15:05:25.884Z,69.29
2023-03-04T15:08:04.196Z,69.88
2023-03-04T15:10:37.909Z,69.46
2023-03-04T15:13:09.826Z,69.02
2023-03-04T15:15:46.703Z,68.48
2023-03-04T15:18:27.624Z,68.44
2023-03-04T15:21:25.768Z,68.88
2023-03-04T15:23:57.148Z,68.86
2023-03-04T15:26:28.532Z,66.42
2023-03-04T15:28:59.903Z,67.54
2023-03-04T15:31:31.668Z,68.36
2023-03-04T15:34:02.985Z,67.85
2023-03-04T15:36:34.275Z,68.67
2023-03-04T15:39:05.736Z,67.93
2023-03-04T15:41:37.099Z,67.72
2023-03-04T15:44:09.846Z,68.71
2023-03-04T15:46:41.185Z,69.36
2023-03-04T15:49:12.544Z,68.74
2023-03-04T15:51:43.920Z,69.48
2023-03-04T15:54:15.636Z,69.16
2023-03-04T15:56:46.997Z,68.82
2023-03-04T15:59:18.885Z,68.82
2023-03-04T16:01:50.351Z,69.08
2023-03-04T16:04:22.345Z,69.26
2023-03-04T16:06:56.580Z,68.55
2023-03-04T16:09:27.868Z,69.78
2023-03-04T16:12:01.872Z,69.00
2023-03-04T16:14:33.170Z,69.19
2023-03-04T16:17:04.581Z,70.27
2023-03-04T16:19:36.032Z,69.90
2023-03-04T16:22:07.482Z,69.17
2023-03-04T16:24:38.864Z,69.37
2023-03-04T16:27:20.008Z,69.11
2023-03-04T16:29:51.372Z,69.31
2023-03-04T16:32:24.515Z,69.81
2023-03-04T16:34:55.810Z,70.11
2023-03-04T16:37:27.094Z,70.28
2023-03-04T16:39:59.936Z,69.98
2023-03-04T16:42:31.198Z,70.46
2023-03-04T16:45:02.968Z,70.97
2023-03-04T16:47:34.423Z,70.12
2023-03-04T16:50:05.901Z,70.00
2023-03-04T16:52:37.260Z,70.61
2023-03-04T16:55:16.309Z,70.42
2023-03-04T16:57:48.075Z,70.29
2023-03-04T17:00:22.094Z,70.26
2023-03-04T17:02:57.216Z,71.01
2023-03-04T17:05:31.379Z,71.08
2023-03-04T17:08:03.042Z,70.49
2023-03-04T17:10:34.733Z,71.06
2023-03-04T17:13:06.135Z,70.80
2023-03-04T17:15:37.441Z,71.35
2023-03-04T17:18:09.197Z,70.74
2023-03-04T17:20:40.573Z,72.10
2023-03-04T17:23:11.826Z,71.61
2023-03-04T17:25:43.083Z,71.23
2023-03-04T17:28:14.352Z,70.98
2023-03-04T17:30:45.601Z,70.95
2023-03-04T17:33:16.966Z,71.82
2023-03-04T17:35:48.808Z,71.21
2023-03-04T17:38:20.082Z,71.79
2023-03-04T17:40:51.396Z,71.56
2023-03-04T17:43:23.010Z,70.66
2023-03-04T17:46:05.750Z,71.75
2023-03-04T17:48:37.012Z,71.69
2023-03-04T17:51:10.325Z,71.32
2023-03-04T17:53:41.647Z,70.60
2023-03-04T17:56:13.184Z,70.63
2023-03-04T17:58:44.544Z,70.21
2023-03-04T18:01:20.243Z,71.23
2023-03-04T18:03:52.593Z,71.21
2023-03-04T18:06:25.071Z,70.61
2023-03-04T18:08:56.354Z,71.48
2023-03-04T18:11:28.816Z,70.44
2023-03-04T18:14:00.215Z,71.45
2023-03-04T18:16:31.866Z,71.23
2023-03-04T18:19:04.562Z,71.79
2023-03-04T18:21:35.902Z,71.90
2023-03-04T18:24:07.401Z,70.73
2023-03-04T18:26:38.736Z,70.25
2023-03-04T18:29:10.035Z,71.24
2023-03-04T18:31:41.391Z,71.67
2023-03-04T18:34:12.652Z,71.24
2023-03-04T18:36:43.950Z,70.90
2023-03-04T18:39:17.361Z,70.62
2023-03-04T18:41:48.699Z,71.06
2023-03-04T18:44:20.206Z,71.33
2023-03-04T18:46:55.730Z,70.85
2023-03-04T18:49:27.139Z,71.73
2023-03-04T18:51:58.550Z,70.46
2023-03-04T18:54:29.834Z,69.49
2023-03-04T18:57:08.521Z,70.38
2023-03-04T18:59:59.085Z,70.25
2023-03-04T19:02:45.601Z,70.53
2023-03-04T19:05:21.870Z,70.69
2023-03-04T19:07:53.178Z,70.67
2023-03-04T19:10:25.477Z,70.38
2023-03-04T19:12:59.305Z,69.76
2023-03-04T19:15:31.003Z,71.44
2023-03-04T19:18:02.568Z,70.46
2023-03-04T19:20:34.031Z,69.07
2023-03-04T19:23:09.926Z,70.48
2023-03-04T19:25:41.456Z,69.22
2023-03-04T19:28:12.852Z,69.96
2023-03-04T19:30:44.339Z,69.54
2023-03-04T19:33:15.648Z,69.72
2023-03-04T19:35:47.581Z,69.60
2023-03-04T19:38:18.970Z,69.54
2023-03-04T19:40:50.467Z,70.36
2023-03-04T19:43:21.866Z,69.65
2023-03-04T19:45:56.694Z,70.10
2023-03-04T19:48:28.414Z,69.43
2023-03-04T19:50:59.779Z,69.92
2023-03-04T19:53:34.600Z,69.93
2023-03-04T19:56:06.631Z,70.70
2023-03-04T19:58:38.007Z,70.09
2023-03-04T20:01:35.711Z,69.84
2023-03-04T20:04:09.921Z,70.13
2023-03-04T20:06:44.604Z,69.41
2023-03-04T20:09:17.499Z,69.09
2023-03-04T20:11:59.055Z,69.97
2023-03-04T20:14:36.150Z,70.39
2023-03-04T20:17:07.977Z,70.13
2023-03-04T20:19:39.413Z,70.18
2023-03-04T20:22:10.989Z,70.10
2023-03-04T20:24:42.280Z,70.71
2023-03-04T20:27:15.349Z,69.88
2023-03-04T20:29:48.799Z,69.56
2023-03-04T20:32:20.161Z,69.68
2023-03-04T20:34:54.109Z,71.03
2023-03-04T20:37:25.466Z,70.69
2023-03-04T20:39:58.009Z,70.40
2023-03-04T20:42:29.491Z,70.89
2023-03-04T20:45:00.902Z,70.87
2023-03-04T20:47:32.388Z,71.12
2023-03-04T20:50:05.826Z,70.08
2023-03-04T20:52:37.182Z,71.06
2023-03-04T20:55:08.916Z,70.46
2023-03-04T20:57:40.318Z,71.16
2023-03-04T21:00:12.195Z,71.18
2023-03-04T21:02:43.554Z,71.36
2023-03-04T21:05:14.904Z,70.83
2023-03-04T21:07:46.238Z,71.34
2023-03-04T21:10:19.563Z,71.37
2023-03-04T21:12:51.490Z,71.71
2023-03-04T21:15:22.898Z,70.97
2023-03-04T21:17:54.571Z,71.89
2023-03-04T21:20:26.010Z,71.85
2023-03-04T21:22:57.295Z,72.45
2023-03-04T21:25:28.647Z,71.91
2023-03-04T21:28:00.005Z,72.46
2023-03-04T21:30:31.361Z,71.78
2023-03-04T21:33:04.488Z,72.26
2023-03-04T21:35:36.991Z,71.35
2023-03-04T21:38:08.400Z,71.50
2023-03-04T21:40:39.827Z,71.14
2023-03-04T21:43:11.161Z,71.83
2023-03-04T21:45:42.427Z,73.12
2023-03-04T21:48:13.771Z,73.52
2023-03-04T21:50:45.279Z,73.51
2023-03-04T21:53:21.463Z,73.75
2023-03-04T21:55:53.355Z,73.87
2023-03-04T21:58:25.390Z,73.91
2023-03-04T22:00:59.009Z,73.85
2023-03-04T22:03:30.407Z,73.88
2023-03-04T22:06:05.083Z,74.79
2023-03-04T22:08:37.870Z,74.69
2023-03-04T22:11:10.939Z,74.34
2023-03-04T22:13:42.326Z,74.75
2023-03-04T22:16:13.792Z,75.10
2023-03-04T22:18:45.189Z,75.45
2023-03-04T22:21:18.960Z,75.62
2023-03-04T22:23:50.269Z,75.84
2023-03-04T22:26:31.900Z,75.75
2023-03-04T22:29:04.679Z,75.73
2023-03-04T22:31:37.998Z,76.74
2023-03-04T22:34:12.797Z,77.23
2023-03-04T22:36:45.925Z,76.72
2023-03-04T22:39:22.823Z,76.88
2023-03-04T22:41:54.162Z,76.57
2023-03-04T22:44:25.619Z,77.16
2023-03-04T22:46:56.957Z,77.34
2023-03-04T22:49:28.336Z,77.57
2023-03-04T22:51:59.703Z,77.76
2023-03-04T22:54:30.975Z,77.91
2023-03-04T22:57:02.226Z,77.65
2023-03-04T22:59:33.512Z,77.33
2023-03-04T23:02:04.940Z,77.84
2023-03-04T23:04:36.358Z,78.61
2023-03-04T23:07:07.614Z,78.39
2023-03-04T23:09:38.940Z,78.49
2023-03-04T23:12:10.214Z,78.32
2023-03-04T23:14:43.460Z,78.71
2023-03-04T23:17:14.785Z,79.19
2023-03-04T23:19:46.046Z,79.02
2023-03-04T23:22:17.309Z,78.35
2023-03-04T23:24:48.784Z,78.64
2023-03-04T23:27:20.053Z,79.29
2023-03-04T23:29:52.015Z,78.77
2023-03-04T23:32:23.431Z,79.55
2023-03-04T23:34:56.064Z,79.60
2023-03-04T23:37:27.347Z,79.57
2023-03-04T23:39:58.661Z,79.33
2023-03-04T23:42:29.948Z,79.88
2023-03-04T23:45:01.229Z,79.98
2023-03-04T23:47:32.521Z,80.07
2023-03-04T23:50:04.195Z,80.24
2023-03-04T23:52:35.555Z,79.95
2023-03-04T23:55:07.088Z,79.31
2023-03-04T23:57:38.379Z,79.92
